sensor_id;sensor_type;location;lat;lon;timestamp;P1;durP1;ratioP1;P2;durP2;ratioP2
41829;SDS011;38614;43.472;23.936;2023-09-18T00:02:23;6.47;;;3.33;;
41829;SDS011;38614;43.472;23.936;2023-09-18T00:05:11;6.25;;;3.65;;
41829;SDS011;38614;43.472;23.936;2023-09-18T00:08:03;9.48;;;4.68;;
41829;SDS011;38614;43.472;23.936;2023-09-18T00:10:54;5.72;;;3.63;;
41829;SDS011;38614;43.472;23.936;2023-09-18T00:13:42;6.38;;;4.05;;
41829;SDS011;38614;43.472;23.936;2023-09-18T00:16:30;5.43;;;3.40;;
41829;SDS011;38614;43.472;23.936;2023-09-18T00:19:38;6.30;;;3.22;;
41829;SDS011;38614;43.472;23.936;2023-09-18T00:22:26;4.93;;;2.95;;
41829;SDS011;38614;43.472;23.936;2023-09-18T00:25:15;7.78;;;2.35;;
41829;SDS011;38614;43.472;23.936;2023-09-18T00:28:03;4.53;;;3.08;;
41829;SDS011;38614;43.472;23.936;2023-09-18T00:30:51;2.22;;;2.00;;
41829;SDS011;38614;43.472;23.936;2023-09-18T00:33:39;2.53;;;2.22;;
41829;SDS011;38614;43.472;23.936;2023-09-18T00:36:27;6.00;;;2.42;;
41829;SDS011;38614;43.472;23.936;2023-09-18T00:39:15;3.95;;;2.63;;
41829;SDS011;38614;43.472;23.936;2023-09-18T00:42:03;4.93;;;2.80;;
41829;SDS011;38614;43.472;23.936;2023-09-18T00:44:50;3.47;;;2.35;;
41829;SDS011;38614;43.472;23.936;2023-09-18T00:47:38;3.42;;;2.15;;
41829;SDS011;38614;43.472;23.936;2023-09-18T00:50:27;3.05;;;2.30;;
41829;SDS011;38614;43.472;23.936;2023-09-18T00:53:19;6.10;;;2.60;;
41829;SDS011;38614;43.472;23.936;2023-09-18T00:56:08;3.45;;;2.75;;
41829;SDS011;38614;43.472;23.936;2023-09-18T00:59:00;12.70;;;3.03;;
41829;SDS011;38614;43.472;23.936;2023-09-18T01:01:50;3.13;;;2.67;;
41829;SDS011;38614;43.472;23.936;2023-09-18T01:04:39;7.68;;;3.83;;
41829;SDS011;38614;43.472;23.936;2023-09-18T01:10:18;4.18;;;3.42;;
41829;SDS011;38614;43.472;23.936;2023-09-18T01:13:12;4.70;;;3.45;;
41829;SDS011;38614;43.472;23.936;2023-09-18T01:16:08;5.55;;;3.97;;
41829;SDS011;38614;43.472;23.936;2023-09-18T01:19:02;8.57;;;3.80;;
41829;SDS011;38614;43.472;23.936;2023-09-18T01:21:50;10.70;;;3.88;;
41829;SDS011;38614;43.472;23.936;2023-09-18T01:24:38;8.82;;;3.17;;
41829;SDS011;38614;43.472;23.936;2023-09-18T01:27:29;5.32;;;3.25;;
41829;SDS011;38614;43.472;23.936;2023-09-18T01:30:17;6.13;;;4.05;;
41829;SDS011;38614;43.472;23.936;2023-09-18T01:33:05;7.78;;;3.55;;
41829;SDS011;38614;43.472;23.936;2023-09-18T01:35:54;4.25;;;3.17;;
41829;SDS011;38614;43.472;23.936;2023-09-18T01:38:44;7.85;;;3.75;;
41829;SDS011;38614;43.472;23.936;2023-09-18T01:41:33;6.07;;;3.83;;
41829;SDS011;38614;43.472;23.936;2023-09-18T01:44:21;6.50;;;3.83;;
41829;SDS011;38614;43.472;23.936;2023-09-18T01:47:11;3.75;;;3.28;;
41829;SDS011;38614;43.472;23.936;2023-09-18T01:50:05;7.38;;;4.07;;
41829;SDS011;38614;43.472;23.936;2023-09-18T01:52:53;5.72;;;4.15;;
41829;SDS011;38614;43.472;23.936;2023-09-18T01:55:40;9.57;;;3.33;;
41829;SDS011;38614;43.472;23.936;2023-09-18T01:58:29;11.25;;;3.90;;
41829;SDS011;38614;43.472;23.936;2023-09-18T02:01:18;5.30;;;3.20;;
41829;SDS011;38614;43.472;23.936;2023-09-18T02:04:06;4.25;;;3.42;;
41829;SDS011;38614;43.472;23.936;2023-09-18T02:07:14;6.18;;;2.88;;
41829;SDS011;38614;43.472;23.936;2023-09-18T02:10:02;11.20;;;3.45;;
41829;SDS011;38614;43.472;23.936;2023-09-18T02:12:51;7.72;;;3.72;;
41829;SDS011;38614;43.472;23.936;2023-09-18T02:15:39;5.15;;;3.80;;
41829;SDS011;38614;43.472;23.936;2023-09-18T02:18:28;6.15;;;4.00;;
41829;SDS011;38614;43.472;23.936;2023-09-18T02:21:22;6.80;;;4.30;;
41829;SDS011;38614;43.472;23.936;2023-09-18T02:24:10;6.95;;;4.47;;
41829;SDS011;38614;43.472;23.936;2023-09-18T02:26:58;4.35;;;3.67;;
41829;SDS011;38614;43.472;23.936;2023-09-18T02:29:46;5.95;;;3.80;;
41829;SDS011;38614;43.472;23.936;2023-09-18T02:32:37;9.05;;;4.10;;
41829;SDS011;38614;43.472;23.936;2023-09-18T02:35:25;7.05;;;3.35;;
41829;SDS011;38614;43.472;23.936;2023-09-18T02:38:13;8.73;;;4.43;;
41829;SDS011;38614;43.472;23.936;2023-09-18T02:41:01;8.02;;;4.32;;
41829;SDS011;38614;43.472;23.936;2023-09-18T02:43:49;14.32;;;4.55;;
41829;SDS011;38614;43.472;23.936;2023-09-18T02:46:37;7.63;;;4.75;;
41829;SDS011;38614;43.472;23.936;2023-09-18T02:49:26;6.88;;;4.45;;
41829;SDS011;38614;43.472;23.936;2023-09-18T02:52:13;9.07;;;5.22;;
41829;SDS011;38614;43.472;23.936;2023-09-18T02:55:02;5.78;;;4.07;;
41829;SDS011;38614;43.472;23.936;2023-09-18T02:57:50;10.05;;;5.32;;
41829;SDS011;38614;43.472;23.936;2023-09-18T03:00:46;4.57;;;4.18;;
41829;SDS011;38614;43.472;23.936;2023-09-18T03:03:35;8.80;;;3.72;;
41829;SDS011;38614;43.472;23.936;2023-09-18T03:06:23;6.93;;;4.75;;
41829;SDS011;38614;43.472;23.936;2023-09-18T03:09:11;7.60;;;4.28;;
41829;SDS011;38614;43.472;23.936;2023-09-18T03:11:59;8.52;;;5.38;;
41829;SDS011;38614;43.472;23.936;2023-09-18T03:14:46;7.22;;;4.25;;
41829;SDS011;38614;43.472;23.936;2023-09-18T03:17:34;5.32;;;4.30;;
41829;SDS011;38614;43.472;23.936;2023-09-18T03:20:23;13.73;;;4.55;;
41829;SDS011;38614;43.472;23.936;2023-09-18T03:23:12;5.60;;;4.40;;
41829;SDS011;38614;43.472;23.936;2023-09-18T03:26:00;9.98;;;4.65;;
41829;SDS011;38614;43.472;23.936;2023-09-18T03:28:48;6.22;;;4.00;;
41829;SDS011;38614;43.472;23.936;2023-09-18T03:31:37;9.52;;;5.25;;
41829;SDS011;38614;43.472;23.936;2023-09-18T03:34:25;7.22;;;5.30;;
41829;SDS011;38614;43.472;23.936;2023-09-18T03:37:16;17.92;;;6.07;;
41829;SDS011;38614;43.472;23.936;2023-09-18T03:40:04;16.70;;;6.03;;
41829;SDS011;38614;43.472;23.936;2023-09-18T03:42:52;6.65;;;4.95;;
41829;SDS011;38614;43.472;23.936;2023-09-18T03:45:40;10.70;;;5.72;;
41829;SDS011;38614;43.472;23.936;2023-09-18T03:48:41;10.65;;;5.38;;
41829;SDS011;38614;43.472;23.936;2023-09-18T03:51:29;11.27;;;4.78;;
41829;SDS011;38614;43.472;23.936;2023-09-18T03:54:21;10.57;;;5.40;;
41829;SDS011;38614;43.472;23.936;2023-09-18T03:57:12;8.45;;;4.15;;
41829;SDS011;38614;43.472;23.936;2023-09-18T04:00:00;10.38;;;4.97;;
41829;SDS011;38614;43.472;23.936;2023-09-18T04:02:57;40.25;;;6.15;;
41829;SDS011;38614;43.472;23.936;2023-09-18T04:05:46;7.55;;;5.20;;
41829;SDS011;38614;43.472;23.936;2023-09-18T04:08:36;8.60;;;4.55;;
41829;SDS011;38614;43.472;23.936;2023-09-18T04:11:25;7.78;;;4.35;;
41829;SDS011;38614;43.472;23.936;2023-09-18T04:14:15;9.83;;;5.37;;
41829;SDS011;38614;43.472;23.936;2023-09-18T04:17:06;7.47;;;4.80;;
41829;SDS011;38614;43.472;23.936;2023-09-18T04:19:53;6.78;;;5.03;;
41829;SDS011;38614;43.472;23.936;2023-09-18T04:22:45;7.35;;;5.40;;
41829;SDS011;38614;43.472;23.936;2023-09-18T04:25:38;15.70;;;6.63;;
41829;SDS011;38614;43.472;23.936;2023-09-18T04:28:25;11.93;;;4.97;;
41829;SDS011;38614;43.472;23.936;2023-09-18T04:31:14;10.52;;;5.38;;
41829;SDS011;38614;43.472;23.936;2023-09-18T04:34:01;9.48;;;5.15;;
41829;SDS011;38614;43.472;23.936;2023-09-18T04:36:50;19.08;;;6.50;;
41829;SDS011;38614;43.472;23.936;2023-09-18T04:39:37;8.27;;;5.70;;
41829;SDS011;38614;43.472;23.936;2023-09-18T04:42:26;10.63;;;6.60;;
41829;SDS011;38614;43.472;23.936;2023-09-18T04:45:16;8.32;;;6.00;;
41829;SDS011;38614;43.472;23.936;2023-09-18T04:48:04;9.13;;;4.78;;
41829;SDS011;38614;43.472;23.936;2023-09-18T04:50:53;10.65;;;4.95;;
41829;SDS011;38614;43.472;23.936;2023-09-18T04:53:41;7.90;;;5.40;;
41829;SDS011;38614;43.472;23.936;2023-09-18T04:56:30;6.78;;;4.63;;
41829;SDS011;38614;43.472;23.936;2023-09-18T04:59:18;6.93;;;3.50;;
41829;SDS011;38614;43.472;23.936;2023-09-18T05:02:05;6.60;;;3.65;;
41829;SDS011;38614;43.472;23.936;2023-09-18T05:04:55;6.10;;;3.03;;
41829;SDS011;38614;43.472;23.936;2023-09-18T05:07:44;7.15;;;3.42;;
41829;SDS011;38614;43.472;23.936;2023-09-18T05:10:32;5.50;;;3.13;;
41829;SDS011;38614;43.472;23.936;2023-09-18T05:13:19;12.32;;;3.90;;
41829;SDS011;38614;43.472;23.936;2023-09-18T05:16:07;9.98;;;3.13;;
41829;SDS011;38614;43.472;23.936;2023-09-18T05:18:55;8.65;;;2.60;;
41829;SDS011;38614;43.472;23.936;2023-09-18T05:21:42;7.35;;;2.75;;
41829;SDS011;38614;43.472;23.936;2023-09-18T05:24:30;4.18;;;2.88;;
41829;SDS011;38614;43.472;23.936;2023-09-18T05:27:18;5.82;;;3.42;;
41829;SDS011;38614;43.472;23.936;2023-09-18T05:30:07;14.95;;;3.60;;
41829;SDS011;38614;43.472;23.936;2023-09-18T05:32:55;6.32;;;2.85;;
41829;SDS011;38614;43.472;23.936;2023-09-18T05:35:43;6.93;;;3.55;;
41829;SDS011;38614;43.472;23.936;2023-09-18T05:38:32;5.05;;;3.67;;
41829;SDS011;38614;43.472;23.936;2023-09-18T05:41:19;11.52;;;4.20;;
41829;SDS011;38614;43.472;23.936;2023-09-18T05:44:08;6.68;;;3.53;;
41829;SDS011;38614;43.472;23.936;2023-09-18T05:46:56;7.60;;;2.60;;
41829;SDS011;38614;43.472;23.936;2023-09-18T05:49:44;10.85;;;3.88;;
41829;SDS011;38614;43.472;23.936;2023-09-18T05:52:32;9.85;;;4.20;;
41829;SDS011;38614;43.472;23.936;2023-09-18T05:55:20;11.02;;;3.13;;
41829;SDS011;38614;43.472;23.936;2023-09-18T05:58:08;6.70;;;3.22;;
41829;SDS011;38614;43.472;23.936;2023-09-18T06:01:01;7.10;;;3.17;;
41829;SDS011;38614;43.472;23.936;2023-09-18T06:03:51;6.55;;;2.85;;
41829;SDS011;38614;43.472;23.936;2023-09-18T06:06:38;5.72;;;2.75;;
41829;SDS011;38614;43.472;23.936;2023-09-18T06:09:26;5.80;;;2.63;;
41829;SDS011;38614;43.472;23.936;2023-09-18T06:12:14;3.63;;;2.38;;
41829;SDS011;38614;43.472;23.936;2023-09-18T06:15:02;7.40;;;2.75;;
41829;SDS011;38614;43.472;23.936;2023-09-18T06:17:51;4.50;;;2.20;;
41829;SDS011;38614;43.472;23.936;2023-09-18T06:20:39;3.05;;;2.45;;
41829;SDS011;38614;43.472;23.936;2023-09-18T06:23:28;4.93;;;2.75;;
41829;SDS011;38614;43.472;23.936;2023-09-18T06:26:17;3.50;;;1.85;;
41829;SDS011;38614;43.472;23.936;2023-09-18T06:29:05;3.90;;;1.65;;
41829;SDS011;38614;43.472;23.936;2023-09-18T06:31:55;3.10;;;2.25;;
41829;SDS011;38614;43.472;23.936;2023-09-18T06:34:43;5.10;;;2.70;;
41829;SDS011;38614;43.472;23.936;2023-09-18T06:37:31;5.63;;;2.00;;
41829;SDS011;38614;43.472;23.936;2023-09-18T06:40:19;8.68;;;2.90;;
41829;SDS011;38614;43.472;23.936;2023-09-18T06:43:06;6.28;;;2.90;;
41829;SDS011;38614;43.472;23.936;2023-09-18T06:45:54;3.63;;;2.78;;
41829;SDS011;38614;43.472;23.936;2023-09-18T06:48:45;5.90;;;3.60;;
41829;SDS011;38614;43.472;23.936;2023-09-18T06:51:37;7.55;;;3.15;;
41829;SDS011;38614;43.472;23.936;2023-09-18T06:54:30;10.32;;;3.33;;
41829;SDS011;38614;43.472;23.936;2023-09-18T06:57:17;8.35;;;3.33;;
41829;SDS011;38614;43.472;23.936;2023-09-18T07:00:05;9.60;;;3.40;;
41829;SDS011;38614;43.472;23.936;2023-09-18T07:02:54;9.90;;;4.00;;
41829;SDS011;38614;43.472;23.936;2023-09-18T07:05:43;4.95;;;3.65;;
41829;SDS011;38614;43.472;23.936;2023-09-18T07:08:31;6.90;;;4.28;;
41829;SDS011;38614;43.472;23.936;2023-09-18T07:11:19;7.68;;;4.15;;
41829;SDS011;38614;43.472;23.936;2023-09-18T07:14:09;4.65;;;3.33;;
41829;SDS011;38614;43.472;23.936;2023-09-18T07:16:57;6.43;;;3.92;;
41829;SDS011;38614;43.472;23.936;2023-09-18T07:19:47;6.30;;;3.75;;
41829;SDS011;38614;43.472;23.936;2023-09-18T07:22:35;4.45;;;4.05;;
41829;SDS011;38614;43.472;23.936;2023-09-18T07:25:22;11.43;;;4.55;;
41829;SDS011;38614;43.472;23.936;2023-09-18T07:28:10;4.97;;;3.72;;
41829;SDS011;38614;43.472;23.936;2023-09-18T07:31:04;5.72;;;3.33;;
41829;SDS011;38614;43.472;23.936;2023-09-18T07:33:53;5.93;;;3.78;;
41829;SDS011;38614;43.472;23.936;2023-09-18T07:36:41;5.13;;;3.78;;
41829;SDS011;38614;43.472;23.936;2023-09-18T07:39:28;8.05;;;4.10;;
41829;SDS011;38614;43.472;23.936;2023-09-18T07:42:16;9.00;;;3.85;;
41829;SDS011;38614;43.472;23.936;2023-09-18T07:45:04;6.13;;;3.42;;
41829;SDS011;38614;43.472;23.936;2023-09-18T07:47:53;8.02;;;3.78;;
41829;SDS011;38614;43.472;23.936;2023-09-18T07:50:43;4.50;;;3.55;;
41829;SDS011;38614;43.472;23.936;2023-09-18T07:53:31;8.73;;;3.10;;
41829;SDS011;38614;43.472;23.936;2023-09-18T07:56:19;10.57;;;2.35;;
41829;SDS011;38614;43.472;23.936;2023-09-18T07:59:07;4.80;;;3.30;;
41829;SDS011;38614;43.472;23.936;2023-09-18T08:01:57;2.95;;;1.92;;
41829;SDS011;38614;43.472;23.936;2023-09-18T08:04:45;4.43;;;2.22;;
41829;SDS011;38614;43.472;23.936;2023-09-18T08:07:33;2.63;;;2.42;;
41829;SDS011;38614;43.472;23.936;2023-09-18T08:10:23;5.63;;;1.15;;
41829;SDS011;38614;43.472;23.936;2023-09-18T08:13:10;2.55;;;1.40;;
41829;SDS011;38614;43.472;23.936;2023-09-18T08:15:58;5.72;;;1.65;;
41829;SDS011;38614;43.472;23.936;2023-09-18T08:18:46;4.50;;;1.10;;
41829;SDS011;38614;43.472;23.936;2023-09-18T08:21:35;2.33;;;1.27;;
41829;SDS011;38614;43.472;23.936;2023-09-18T08:24:26;2.60;;;0.93;;
41829;SDS011;38614;43.472;23.936;2023-09-18T08:27:14;1.77;;;0.90;;
41829;SDS011;38614;43.472;23.936;2023-09-18T08:30:05;5.45;;;1.42;;
41829;SDS011;38614;43.472;23.936;2023-09-18T08:32:53;4.95;;;0.73;;
41829;SDS011;38614;43.472;23.936;2023-09-18T08:35:41;3.08;;;0.75;;
41829;SDS011;38614;43.472;23.936;2023-09-18T08:38:29;3.70;;;0.60;;
41829;SDS011;38614;43.472;23.936;2023-09-18T08:41:18;6.28;;;0.60;;
41829;SDS011;38614;43.472;23.936;2023-09-18T08:44:07;2.05;;;0.93;;
41829;SDS011;38614;43.472;23.936;2023-09-18T08:46:56;3.08;;;0.25;;
41829;SDS011;38614;43.472;23.936;2023-09-18T08:49:45;3.80;;;0.55;;
41829;SDS011;38614;43.472;23.936;2023-09-18T08:52:36;1.38;;;0.68;;
41829;SDS011;38614;43.472;23.936;2023-09-18T08:55:24;2.80;;;0.60;;
41829;SDS011;38614;43.472;23.936;2023-09-18T08:58:13;8.95;;;0.85;;
41829;SDS011;38614;43.472;23.936;2023-09-18T09:01:03;3.77;;;0.50;;
41829;SDS011;38614;43.472;23.936;2023-09-18T09:03:53;4.10;;;0.50;;
41829;SDS011;38614;43.472;23.936;2023-09-18T09:06:42;7.82;;;0.70;;
41829;SDS011;38614;43.472;23.936;2023-09-18T09:09:30;2.20;;;0.52;;
41829;SDS011;38614;43.472;23.936;2023-09-18T09:15:45;8.15;;;0.40;;
41829;SDS011;38614;43.472;23.936;2023-09-18T09:18:46;11.20;;;0.60;;
41829;SDS011;38614;43.472;23.936;2023-09-18T09:21:38;2.85;;;0.15;;
41829;SDS011;38614;43.472;23.936;2023-09-18T09:24:35;4.22;;;0.52;;
41829;SDS011;38614;43.472;23.936;2023-09-18T09:27:41;0.45;;;0.13;;
41829;SDS011;38614;43.472;23.936;2023-09-18T09:30:30;1.08;;;0.40;;
41829;SDS011;38614;43.472;23.936;2023-09-18T09:33:18;1.23;;;0.30;;
41829;SDS011;38614;43.472;23.936;2023-09-18T09:36:06;0.95;;;0.40;;
41829;SDS011;38614;43.472;23.936;2023-09-18T09:38:57;0.65;;;0.20;;
41829;SDS011;38614;43.472;23.936;2023-09-18T09:41:46;1.13;;;0.32;;
41829;SDS011;38614;43.472;23.936;2023-09-18T09:44:34;2.05;;;0.80;;
41829;SDS011;38614;43.472;23.936;2023-09-18T09:47:22;0.30;;;0.20;;
41829;SDS011;38614;43.472;23.936;2023-09-18T09:50:11;1.77;;;0.32;;
41829;SDS011;38614;43.472;23.936;2023-09-18T09:53:06;6.07;;;0.32;;
41829;SDS011;38614;43.472;23.936;2023-09-18T09:55:54;3.17;;;0.25;;
41829;SDS011;38614;43.472;23.936;2023-09-18T09:58:43;0.60;;;0.50;;
41829;SDS011;38614;43.472;23.936;2023-09-18T10:01:31;4.43;;;0.40;;
41829;SDS011;38614;43.472;23.936;2023-09-18T10:04:19;2.67;;;0.20;;
41829;SDS011;38614;43.472;23.936;2023-09-18T10:07:08;1.15;;;0.30;;
41829;SDS011;38614;43.472;23.936;2023-09-18T10:09:57;3.15;;;0.55;;
41829;SDS011;38614;43.472;23.936;2023-09-18T10:12:45;8.98;;;0.40;;
41829;SDS011;38614;43.472;23.936;2023-09-18T10:15:36;0.70;;;0.20;;
41829;SDS011;38614;43.472;23.936;2023-09-18T10:19:12;0.50;;;0.40;;
41829;SDS011;38614;43.472;23.936;2023-09-18T10:22:04;4.97;;;1.00;;
41829;SDS011;38614;43.472;23.936;2023-09-18T10:25:23;6.18;;;1.50;;
41829;SDS011;38614;43.472;23.936;2023-09-18T10:28:13;3.22;;;0.77;;
41829;SDS011;38614;43.472;23.936;2023-09-18T10:31:02;1.13;;;0.40;;
41829;SDS011;38614;43.472;23.936;2023-09-18T10:33:51;1.90;;;0.43;;
41829;SDS011;38614;43.472;23.936;2023-09-18T10:36:44;0.68;;;0.30;;
41829;SDS011;38614;43.472;23.936;2023-09-18T10:39:36;0.43;;;0.10;;
41829;SDS011;38614;43.472;23.936;2023-09-18T10:42:26;4.57;;;0.35;;
41829;SDS011;38614;43.472;23.936;2023-09-18T10:45:15;1.88;;;0.30;;
41829;SDS011;38614;43.472;23.936;2023-09-18T10:48:05;0.68;;;0.30;;
41829;SDS011;38614;43.472;23.936;2023-09-18T10:50:56;5.78;;;0.47;;
41829;SDS011;38614;43.472;23.936;2023-09-18T10:53:47;0.95;;;0.40;;
41829;SDS011;38614;43.472;23.936;2023-09-18T10:56:35;9.95;;;0.55;;
41829;SDS011;38614;43.472;23.936;2023-09-18T10:59:23;2.35;;;0.30;;
41829;SDS011;38614;43.472;23.936;2023-09-18T11:02:13;5.65;;;0.35;;
41829;SDS011;38614;43.472;23.936;2023-09-18T11:05:02;0.88;;;0.20;;
41829;SDS011;38614;43.472;23.936;2023-09-18T11:08:21;1.45;;;0.30;;
41829;SDS011;38614;43.472;23.936;2023-09-18T11:11:13;0.85;;;0.20;;
41829;SDS011;38614;43.472;23.936;2023-09-18T11:14:10;1.38;;;0.22;;
41829;SDS011;38614;43.472;23.936;2023-09-18T11:16:59;0.28;;;0.20;;
41829;SDS011;38614;43.472;23.936;2023-09-18T11:22:49;4.97;;;1.17;;
41829;SDS011;38614;43.472;23.936;2023-09-18T11:25:46;0.50;;;0.22;;
41829;SDS011;38614;43.472;23.936;2023-09-18T11:28:36;3.75;;;0.13;;
41829;SDS011;38614;43.472;23.936;2023-09-18T11:31:47;0.20;;;0.20;;
41829;SDS011;38614;43.472;23.936;2023-09-18T11:34:41;1.83;;;0.30;;
41829;SDS011;38614;43.472;23.936;2023-09-18T11:37:29;3.78;;;0.38;;
41829;SDS011;38614;43.472;23.936;2023-09-18T11:40:28;3.85;;;0.50;;
41829;SDS011;38614;43.472;23.936;2023-09-18T11:43:22;2.38;;;0.00;;
41829;SDS011;38614;43.472;23.936;2023-09-18T11:46:13;5.80;;;0.63;;
41829;SDS011;38614;43.472;23.936;2023-09-18T11:49:07;0.93;;;0.20;;
41829;SDS011;38614;43.472;23.936;2023-09-18T11:51:59;0.88;;;0.22;;
41829;SDS011;38614;43.472;23.936;2023-09-18T11:54:48;1.30;;;0.20;;
41829;SDS011;38614;43.472;23.936;2023-09-18T11:57:37;2.75;;;0.20;;
41829;SDS011;38614;43.472;23.936;2023-09-18T12:00:25;0.28;;;0.10;;
41829;SDS011;38614;43.472;23.936;2023-09-18T12:03:15;1.73;;;0.20;;
41829;SDS011;38614;43.472;23.936;2023-09-18T12:06:15;3.33;;;0.52;;
41829;SDS011;38614;43.472;23.936;2023-09-18T12:09:04;5.07;;;0.30;;
41829;SDS011;38614;43.472;23.936;2023-09-18T12:11:52;2.45;;;0.30;;
41829;SDS011;38614;43.472;23.936;2023-09-18T12:14:45;5.80;;;0.10;;
41829;SDS011;38614;43.472;23.936;2023-09-18T12:17:35;1.10;;;0.22;;
41829;SDS011;38614;43.472;23.936;2023-09-18T12:20:23;3.58;;;0.47;;
41829;SDS011;38614;43.472;23.936;2023-09-18T12:23:11;9.00;;;0.80;;
41829;SDS011;38614;43.472;23.936;2023-09-18T12:25:59;2.05;;;0.20;;
41829;SDS011;38614;43.472;23.936;2023-09-18T12:28:48;0.75;;;0.20;;
41829;SDS011;38614;43.472;23.936;2023-09-18T12:31:36;1.70;;;0.32;;
41829;SDS011;38614;43.472;23.936;2023-09-18T12:34:25;1.60;;;0.15;;
41829;SDS011;38614;43.472;23.936;2023-09-18T12:37:12;0.60;;;0.32;;
41829;SDS011;38614;43.472;23.936;2023-09-18T12:40:01;1.90;;;0.15;;
41829;SDS011;38614;43.472;23.936;2023-09-18T12:42:55;2.53;;;0.40;;
41829;SDS011;38614;43.472;23.936;2023-09-18T12:45:44;5.90;;;0.43;;
41829;SDS011;38614;43.472;23.936;2023-09-18T12:48:38;1.88;;;0.20;;
41829;SDS011;38614;43.472;23.936;2023-09-18T12:51:32;5.05;;;0.50;;
41829;SDS011;38614;43.472;23.936;2023-09-18T12:54:20;5.13;;;0.30;;
41829;SDS011;38614;43.472;23.936;2023-09-18T12:57:09;7.38;;;0.20;;
41829;SDS011;38614;43.472;23.936;2023-09-18T12:59:57;0.50;;;0.13;;
41829;SDS011;38614;43.472;23.936;2023-09-18T13:02:45;1.75;;;0.17;;
41829;SDS011;38614;43.472;23.936;2023-09-18T13:05:33;3.65;;;0.13;;
41829;SDS011;38614;43.472;23.936;2023-09-18T13:08:22;1.88;;;0.10;;
41829;SDS011;38614;43.472;23.936;2023-09-18T13:11:11;0.65;;;0.20;;
41829;SDS011;38614;43.472;23.936;2023-09-18T13:14:03;6.28;;;0.20;;
41829;SDS011;38614;43.472;23.936;2023-09-18T13:16:52;1.17;;;0.30;;
41829;SDS011;38614;43.472;23.936;2023-09-18T13:19:40;1.50;;;0.10;;
41829;SDS011;38614;43.472;23.936;2023-09-18T13:22:28;5.75;;;0.28;;
41829;SDS011;38614;43.472;23.936;2023-09-18T13:25:34;9.02;;;0.38;;
41829;SDS011;38614;43.472;23.936;2023-09-18T13:31:18;1.40;;;0.10;;
41829;SDS011;38614;43.472;23.936;2023-09-18T13:34:07;2.13;;;0.40;;
41829;SDS011;38614;43.472;23.936;2023-09-18T13:36:58;3.58;;;0.10;;
41829;SDS011;38614;43.472;23.936;2023-09-18T13:39:47;1.55;;;0.20;;
41829;SDS011;38614;43.472;23.936;2023-09-18T13:42:35;0.10;;;0.00;;
41829;SDS011;38614;43.472;23.936;2023-09-18T13:45:24;0.63;;;0.25;;
41829;SDS011;38614;43.472;23.936;2023-09-18T13:48:14;1.33;;;0.30;;
41829;SDS011;38614;43.472;23.936;2023-09-18T13:51:03;6.75;;;0.20;;
41829;SDS011;38614;43.472;23.936;2023-09-18T13:53:51;2.92;;;0.20;;
41829;SDS011;38614;43.472;23.936;2023-09-18T13:56:39;1.40;;;0.20;;
41829;SDS011;38614;43.472;23.936;2023-09-18T13:59:27;0.50;;;0.40;;
41829;SDS011;38614;43.472;23.936;2023-09-18T14:02:15;0.98;;;0.15;;
41829;SDS011;38614;43.472;23.936;2023-09-18T14:05:04;0.50;;;0.10;;
41829;SDS011;38614;43.472;23.936;2023-09-18T14:08:08;0.25;;;0.10;;
41829;SDS011;38614;43.472;23.936;2023-09-18T14:10:56;2.05;;;0.10;;
41829;SDS011;38614;43.472;23.936;2023-09-18T14:13:55;2.47;;;0.13;;
41829;SDS011;38614;43.472;23.936;2023-09-18T14:16:57;0.50;;;0.15;;
41829;SDS011;38614;43.472;23.936;2023-09-18T14:19:46;0.98;;;0.10;;
41829;SDS011;38614;43.472;23.936;2023-09-18T14:22:36;1.17;;;0.20;;
41829;SDS011;38614;43.472;23.936;2023-09-18T14:25:27;1.90;;;0.20;;
41829;SDS011;38614;43.472;23.936;2023-09-18T14:28:19;0.65;;;0.10;;
41829;SDS011;38614;43.472;23.936;2023-09-18T14:31:07;0.25;;;0.20;;
41829;SDS011;38614;43.472;23.936;2023-09-18T14:33:55;0.25;;;0.10;;
41829;SDS011;38614;43.472;23.936;2023-09-18T14:36:45;1.90;;;0.03;;
41829;SDS011;38614;43.472;23.936;2023-09-18T14:39:35;5.38;;;0.30;;
41829;SDS011;38614;43.472;23.936;2023-09-18T14:42:26;3.30;;;0.38;;
41829;SDS011;38614;43.472;23.936;2023-09-18T14:45:14;0.52;;;0.20;;
41829;SDS011;38614;43.472;23.936;2023-09-18T14:48:04;5.63;;;0.73;;
41829;SDS011;38614;43.472;23.936;2023-09-18T14:50:53;2.53;;;0.20;;
41829;SDS011;38614;43.472;23.936;2023-09-18T14:53:43;4.97;;;0.30;;
41829;SDS011;38614;43.472;23.936;2023-09-18T14:56:31;0.98;;;0.38;;
41829;SDS011;38614;43.472;23.936;2023-09-18T14:59:19;1.10;;;0.20;;
41829;SDS011;38614;43.472;23.936;2023-09-18T15:02:27;0.52;;;0.30;;
41829;SDS011;38614;43.472;23.936;2023-09-18T15:05:19;6.32;;;0.30;;
41829;SDS011;38614;43.472;23.936;2023-09-18T15:08:09;7.93;;;0.30;;
41829;SDS011;38614;43.472;23.936;2023-09-18T15:10:57;1.70;;;0.20;;
41829;SDS011;38614;43.472;23.936;2023-09-18T15:13:45;7.38;;;1.05;;
41829;SDS011;38614;43.472;23.936;2023-09-18T15:16:36;1.05;;;0.20;;
41829;SDS011;38614;43.472;23.936;2023-09-18T15:19:41;4.80;;;0.38;;
41829;SDS011;38614;43.472;23.936;2023-09-18T15:22:29;1.00;;;0.50;;
41829;SDS011;38614;43.472;23.936;2023-09-18T15:25:17;0.30;;;0.28;;
41829;SDS011;38614;43.472;23.936;2023-09-18T15:28:07;2.80;;;0.35;;
41829;SDS011;38614;43.472;23.936;2023-09-18T15:30:54;1.75;;;0.47;;
41829;SDS011;38614;43.472;23.936;2023-09-18T15:33:42;0.90;;;0.52;;
41829;SDS011;38614;43.472;23.936;2023-09-18T15:36:32;7.82;;;0.38;;
41829;SDS011;38614;43.472;23.936;2023-09-18T15:39:20;0.47;;;0.22;;
41829;SDS011;38614;43.472;23.936;2023-09-18T15:42:07;1.02;;;0.20;;
41829;SDS011;38614;43.472;23.936;2023-09-18T15:44:58;10.33;;;0.70;;
41829;SDS011;38614;43.472;23.936;2023-09-18T15:47:46;0.93;;;0.40;;
41829;SDS011;38614;43.472;23.936;2023-09-18T15:50:51;7.78;;;0.45;;
41829;SDS011;38614;43.472;23.936;2023-09-18T15:53:39;1.90;;;0.20;;
41829;SDS011;38614;43.472;23.936;2023-09-18T15:56:30;3.72;;;0.52;;
41829;SDS011;38614;43.472;23.936;2023-09-18T15:59:20;2.60;;;0.32;;
41829;SDS011;38614;43.472;23.936;2023-09-18T16:02:09;2.15;;;0.50;;
41829;SDS011;38614;43.472;23.936;2023-09-18T16:04:56;0.82;;;0.30;;
41829;SDS011;38614;43.472;23.936;2023-09-18T16:07:45;1.70;;;0.30;;
41829;SDS011;38614;43.472;23.936;2023-09-18T16:10:33;3.55;;;0.52;;
41829;SDS011;38614;43.472;23.936;2023-09-18T16:13:21;1.25;;;0.45;;
41829;SDS011;38614;43.472;23.936;2023-09-18T16:16:11;2.30;;;0.57;;
41829;SDS011;38614;43.472;23.936;2023-09-18T16:19:04;6.50;;;0.60;;
41829;SDS011;38614;43.472;23.936;2023-09-18T16:21:53;3.67;;;0.47;;
41829;SDS011;38614;43.472;23.936;2023-09-18T16:24:47;0.95;;;0.52;;
41829;SDS011;38614;43.472;23.936;2023-09-18T16:27:34;0.70;;;0.70;;
41829;SDS011;38614;43.472;23.936;2023-09-18T16:30:25;4.72;;;1.05;;
41829;SDS011;38614;43.472;23.936;2023-09-18T16:33:13;1.58;;;0.60;;
41829;SDS011;38614;43.472;23.936;2023-09-18T16:36:01;2.33;;;1.23;;
41829;SDS011;38614;43.472;23.936;2023-09-18T16:38:50;7.13;;;0.60;;
41829;SDS011;38614;43.472;23.936;2023-09-18T16:41:38;6.28;;;0.73;;
41829;SDS011;38614;43.472;23.936;2023-09-18T16:44:26;2.00;;;1.40;;
41829;SDS011;38614;43.472;23.936;2023-09-18T16:47:15;4.60;;;0.63;;
41829;SDS011;38614;43.472;23.936;2023-09-18T16:50:06;8.23;;;0.60;;
41829;SDS011;38614;43.472;23.936;2023-09-18T16:52:55;3.08;;;1.15;;
41829;SDS011;38614;43.472;23.936;2023-09-18T16:55:43;1.13;;;0.77;;
41829;SDS011;38614;43.472;23.936;2023-09-18T16:58:33;3.50;;;1.17;;
41829;SDS011;38614;43.472;23.936;2023-09-18T17:01:22;2.92;;;1.65;;